Time;durP1;ratioP1;P1;durP2;ratioP2;P2;SDS_P1;SDS_P2;PMS_P1;PMS_P2;Temp;Humidity;BMP_temperature;BMP_pressure;BME280_temperature;BME280_humidity;BME280_pressure;Samples;Min_cycle;Max_cycle;Signal;HPM_P1;HPM_P2
2023/04/22 00:01:00;;;;;;;14.73;7.43;;;9.30;99.90;;;;;;2603195;54;20039;31
2023/04/22 00:03:43;;;;;;;10.63;6.97;;;9.30;99.90;;;;;;2602768;54;20026;31
2023/04/22 00:06:17;;;;;;;9.88;6.82;;;9.20;99.90;;;;;;2621428;47;20069;31
2023/04/22 00:08:54;;;;;;;12.57;8.33;;;9.20;99.90;;;;;;2602451;54;20876;31
2023/04/22 00:11:30;;;;;;;10.07;6.20;;;9.10;99.90;;;;;;2602104;54;20887;31
2023/04/22 00:14:06;;;;;;;12.32;6.60;;;9.00;99.90;;;;;;2621425;47;20027;31
2023/04/22 00:16:48;;;;;;;11.40;7.00;;;9.00;99.90;;;;;;2602832;54;20031;31
2023/04/22 00:19:27;;;;;;;13.75;7.10;;;8.90;99.90;;;;;;2602897;54;20764;31
2023/04/22 00:22:02;;;;;;;10.00;7.65;;;8.90;99.90;;;;;;2621586;47;21161;31
2023/04/22 00:24:38;;;;;;;13.97;7.83;;;8.80;99.90;;;;;;2603189;54;20042;31
2023/04/22 00:27:15;;;;;;;9.80;6.80;;;8.80;99.90;;;;;;2602796;54;20112;31
2023/04/22 00:29:50;;;;;;;13.40;7.40;;;8.80;99.90;;;;;;2603582;54;20068;31
2023/04/22 00:32:30;;;;;;;14.40;8.45;;;8.80;99.90;;;;;;2603770;54;20113;31
2023/04/22 00:35:13;;;;;;;;;;;8.70;99.90;;;;;;2604081;54;20936;31
2023/04/22 00:37:54;;;;;;;12.40;6.75;;;8.60;99.90;;;;;;2603645;54;21475;31
2023/04/22 00:40:31;;;;;;;13.38;8.23;;;8.60;99.90;;;;;;2603694;54;20026;31
2023/04/22 00:43:08;;;;;;;12.80;9.25;;;8.50;99.90;;;;;;2603733;54;20868;31
2023/04/22 00:45:43;;;;;;;13.30;9.07;;;8.40;99.90;;;;;;2603827;54;20862;31
2023/04/22 00:48:21;;;;;;;13.45;8.80;;;8.30;99.90;;;;;;2603624;54;20855;31
2023/04/22 00:50:59;;;;;;;14.30;8.38;;;8.20;99.90;;;;;;2603636;54;20982;31
2023/04/22 00:53:34;;;;;;;11.85;8.63;;;8.20;99.90;;;;;;2602853;54;20034;31
2023/04/22 00:56:11;;;;;;;9.05;5.95;;;8.10;99.90;;;;;;2603546;54;20133;31
2023/04/22 01:01:35;;;;;;;12.15;7.50;;;8.00;99.90;;;;;;2603605;54;20026;31
2023/04/22 01:04:14;;;;;;;13.10;8.40;;;8.00;99.90;;;;;;2604055;54;20033;31
2023/04/22 01:06:54;;;;;;;12.02;8.40;;;8.00;99.90;;;;;;2603685;54;20027;31
2023/04/22 01:09:29;;;;;;;11.32;7.57;;;7.90;99.90;;;;;;2622034;46;20037;31
2023/04/22 01:12:06;;;;;;;16.05;9.55;;;7.90;99.90;;;;;;2603610;54;20048;31
2023/04/22 01:14:41;;;;;;;13.20;8.20;;;7.90;99.90;;;;;;2603634;54;20944;31
2023/04/22 01:17:18;;;;;;;13.87;8.13;;;7.80;99.90;;;;;;2603796;54;20046;31
2023/04/22 01:19:56;;;;;;;11.90;8.30;;;7.80;99.90;;;;;;2603648;54;20038;31
2023/04/22 01:22:32;;;;;;;13.67;9.37;;;7.80;99.90;;;;;;2603787;54;20107;31
2023/04/22 01:25:11;;;;;;;15.60;9.40;;;7.80;99.90;;;;;;2621849;46;20935;31
2023/04/22 01:27:55;;;;;;;17.30;10.77;;;7.70;99.90;;;;;;2621923;46;20285;31
2023/04/22 01:30:31;;;;;;;18.05;11.30;;;7.70;99.90;;;;;;2603318;54;20261;31
2023/04/22 01:33:10;;;;;;;15.93;10.55;;;7.70;99.90;;;;;;2621902;46;20077;31
2023/04/22 01:35:48;;;;;;;17.35;10.95;;;7.60;99.90;;;;;;2621798;46;20860;31
2023/04/22 01:38:25;;;;;;;16.20;10.40;;;7.60;99.90;;;;;;2603454;54;20125;31
2023/04/22 01:41:06;;;;;;;24.17;11.95;;;7.50;99.90;;;;;;2782923;31;20026;31
2023/04/22 01:46:18;;;;;;;13.50;9.25;;;7.50;99.90;;;;;;2603444;54;20861;31
2023/04/22 01:48:56;;;;;;;16.40;9.80;;;7.40;99.90;;;;;;2603318;54;20575;31
2023/04/22 01:54:09;;;;;;;;;;;7.40;99.90;;;;;;2603661;54;20081;31
2023/04/22 01:56:51;;;;;;;17.80;11.75;;;7.40;99.90;;;;;;2603408;54;19935;31
2023/04/22 01:59:27;;;;;;;21.80;12.98;;;7.40;99.90;;;;;;2603247;54;20848;31
2023/04/22 02:02:07;;;;;;;19.10;13.15;;;7.40;99.90;;;;;;2603300;54;20064;31
2023/04/22 02:04:44;;;;;;;21.25;13.30;;;7.40;99.90;;;;;;2621277;46;20029;31
2023/04/22 02:07:20;;;;;;;17.25;11.80;;;7.40;99.90;;;;;;2603325;54;21300;31
2023/04/22 02:09:58;;;;;;;16.05;10.15;;;7.40;99.90;;;;;;2603199;54;20962;31
2023/04/22 02:12:37;;;;;;;16.90;10.40;;;7.40;99.90;;;;;;2622011;46;20037;31
2023/04/22 02:15:13;;;;;;;20.20;12.40;;;7.30;99.90;;;;;;2603360;54;20921;31
2023/04/22 02:17:51;;;;;;;22.70;13.07;;;7.30;99.90;;;;;;2603364;54;20791;31
2023/04/22 02:20:25;;;;;;;20.80;13.40;;;7.30;99.90;;;;;;2603387;54;21258;31
2023/04/22 02:23:04;;;;;;;21.33;12.90;;;7.20;99.90;;;;;;2603297;54;20250;31
2023/04/22 02:25:40;;;;;;;16.60;10.90;;;7.20;99.90;;;;;;2603413;54;20026;31
2023/04/22 02:28:20;;;;;;;19.73;12.55;;;7.20;99.90;;;;;;2602545;54;20744;31
2023/04/22 02:30:58;;;;;;;20.00;13.52;;;7.20;99.90;;;;;;2603330;54;20030;31
2023/04/22 02:33:33;;;;;;;24.33;15.80;;;7.10;99.90;;;;;;2621741;46;20855;31
2023/04/22 02:36:10;;;;;;;20.42;14.38;;;7.10;99.90;;;;;;2621443;46;20902;31
2023/04/22 02:38:48;;;;;;;25.98;15.15;;;7.10;99.90;;;;;;2603445;54;20042;31
2023/04/22 02:41:29;;;;;;;25.85;16.25;;;7.00;99.90;;;;;;2603247;54;20939;31
2023/04/22 02:44:15;;;;;;;18.97;11.93;;;7.00;99.90;;;;;;2603298;54;20853;31
2023/04/22 02:46:56;;;;;;;25.05;14.40;;;7.00;99.90;;;;;;2621746;46;20105;31
2023/04/22 02:49:38;;;;;;;27.02;14.40;;;6.90;99.90;;;;;;2603136;54;20065;31
2023/04/22 02:52:16;;;;;;;20.27;12.27;;;6.90;99.90;;;;;;2621568;46;20768;31
2023/04/22 02:54:52;;;;;;;22.35;12.93;;;6.80;99.90;;;;;;2603269;54;20729;31
2023/04/22 02:57:27;;;;;;;20.77;12.35;;;6.80;99.90;;;;;;2622099;46;20891;31
2023/04/22 03:00:08;;;;;;;20.02;13.00;;;6.70;99.90;;;;;;2603320;54;20818;31
2023/04/22 03:02:44;;;;;;;23.80;14.40;;;6.70;99.90;;;;;;2604757;46;20027;31
2023/04/22 03:05:22;;;;;;;23.80;13.80;;;6.70;99.90;;;;;;2602406;54;20022;31
2023/04/22 03:07:58;;;;;;;25.63;14.77;;;6.60;99.90;;;;;;2618926;46;20112;31
2023/04/22 03:10:34;;;;;;;27.23;16.35;;;6.60;99.90;;;;;;2621611;46;20076;31
2023/04/22 03:13:10;;;;;;;26.10;13.90;;;6.60;99.90;;;;;;2603482;54;20034;31
2023/04/22 03:15:51;;;;;;;23.23;14.45;;;6.60;99.90;;;;;;2603093;54;21068;31
2023/04/22 03:18:31;;;;;;;33.17;18.50;;;6.50;99.90;;;;;;2602679;54;20025;31
2023/04/22 03:21:08;;;;;;;21.47;14.57;;;6.50;99.90;;;;;;2603335;54;20033;31
2023/04/22 03:23:46;;;;;;;24.42;13.45;;;6.50;99.90;;;;;;2603370;54;19957;31
2023/04/22 03:26:24;;;;;;;21.55;12.98;;;6.50;99.90;;;;;;2603106;54;20038;31
2023/04/22 03:29:00;;;;;;;24.30;14.60;;;6.50;99.90;;;;;;2603029;54;20901;31
2023/04/22 03:31:41;;;;;;;22.63;14.02;;;6.50;99.90;;;;;;2602858;54;20599;31
2023/04/22 03:34:17;;;;;;;26.48;15.90;;;6.40;99.90;;;;;;2621601;46;20026;31
2023/04/22 03:36:55;;;;;;;25.87;16.03;;;6.40;99.90;;;;;;2603230;54;20022;31
2023/04/22 03:39:31;;;;;;;30.60;18.45;;;6.30;99.90;;;;;;2603021;54;20818;31
2023/04/22 03:42:07;;;;;;;25.42;16.80;;;6.30;99.90;;;;;;2621301;47;20019;31
2023/04/22 03:44:49;;;;;;;23.15;14.45;;;6.20;99.90;;;;;;2603030;54;20053;31
2023/04/22 03:47:30;;;;;;;24.60;14.85;;;6.20;99.90;;;;;;2603186;54;20026;31
2023/04/22 03:50:17;;;;;;;20.20;13.70;;;6.10;99.90;;;;;;2602910;54;20865;31
2023/04/22 03:52:54;;;;;;;21.25;12.35;;;6.10;99.90;;;;;;2603170;54;20034;31
2023/04/22 03:55:34;;;;;;;25.75;14.30;;;6.10;99.90;;;;;;2603150;54;20926;31
2023/04/22 03:58:10;;;;;;;22.98;13.70;;;6.00;99.90;;;;;;2602961;54;20928;31
2023/04/22 04:00:45;;;;;;;18.98;12.93;;;6.10;99.90;;;;;;2602953;54;20026;31
2023/04/22 04:03:24;;;;;;;19.48;12.20;;;6.10;99.90;;;;;;2603088;54;20898;31
2023/04/22 04:06:10;;;;;;;23.00;12.45;;;6.00;99.90;;;;;;2603988;54;20748;31
2023/04/22 04:08:46;;;;;;;20.10;12.88;;;6.00;99.90;;;;;;2602826;54;20026;31
2023/04/22 04:11:24;;;;;;;17.42;12.00;;;6.00;99.90;;;;;;2603183;54;20031;31
2023/04/22 04:14:02;;;;;;;19.85;12.02;;;6.00;99.90;;;;;;2602970;54;21010;31
2023/04/22 04:16:53;;;;;;;18.98;11.80;;;6.00;99.90;;;;;;2622314;46;20023;31
2023/04/22 04:19:35;;;;;;;17.50;10.70;;;6.10;99.90;;;;;;2603710;54;20750;31
2023/04/22 04:22:14;;;;;;;;;;;6.20;99.90;;;;;;2622082;46;20297;31
2023/04/22 04:25:00;;;;;;;18.33;11.10;;;6.40;99.90;;;;;;2603857;54;19941;31
2023/04/22 04:27:44;;;;;;;16.58;10.13;;;6.50;99.90;;;;;;2622111;46;20838;31
2023/04/22 04:30:27;;;;;;;17.20;9.73;;;6.70;99.90;;;;;;2622483;46;20883;31
2023/04/22 04:33:10;;;;;;;14.48;10.20;;;6.90;99.90;;;;;;2603727;54;20774;31
2023/04/22 04:35:54;;;;;;;16.60;9.82;;;7.00;99.90;;;;;;2622041;46;20928;31
2023/04/22 04:38:40;;;;;;;14.32;9.52;;;7.10;99.90;;;;;;2603985;54;20872;31
2023/04/22 04:41:19;;;;;;;12.70;9.10;;;7.40;99.90;;;;;;2603714;54;20830;31
2023/04/22 04:43:59;;;;;;;19.10;10.40;;;7.70;99.90;;;;;;2603651;54;20246;31
2023/04/22 04:46:42;;;;;;;18.90;11.10;;;7.90;99.90;;;;;;2621952;46;20863;31
2023/04/22 04:49:19;;;;;;;21.95;12.25;;;8.10;99.90;;;;;;2603849;54;20794;31
2023/04/22 04:52:02;;;;;;;14.75;10.52;;;8.30;99.90;;;;;;2603557;54;20077;31
2023/04/22 04:54:40;;;;;;;;;;;8.60;99.90;;;;;;2604109;54;20129;31
2023/04/22 04:57:17;;;;;;;15.05;10.30;;;8.80;99.90;;;;;;2602858;54;19969;31
2023/04/22 04:59:56;;;;;;;14.57;10.38;;;9.10;99.90;;;;;;2603075;54;20031;31
2023/04/22 05:02:37;;;;;;;19.33;10.90;;;9.40;99.90;;;;;;2602618;54;20033;31
2023/04/22 05:05:16;;;;;;;15.93;10.40;;;9.70;99.90;;;;;;2603708;54;20030;31
2023/04/22 05:07:52;;;;;;;13.40;8.80;;;10.00;99.90;;;;;;2621640;46;20133;31
2023/04/22 05:10:34;;;;;;;14.10;9.93;;;10.30;99.90;;;;;;2603113;54;20037;31
2023/04/22 05:13:11;;;;;;;14.85;9.15;;;10.60;99.90;;;;;;2622421;46;20767;31
2023/04/22 05:15:53;;;;;;;16.10;9.82;;;10.80;99.90;;;;;;2603287;54;21128;31
2023/04/22 05:18:32;;;;;;;16.08;9.25;;;11.10;99.90;;;;;;2603695;54;20827;31
2023/04/22 05:21:11;;;;;;;14.93;9.75;;;11.30;99.90;;;;;;2603619;54;20022;31
2023/04/22 05:23:49;;;;;;;15.15;10.15;;;11.50;99.90;;;;;;2622046;46;20029;31
2023/04/22 05:26:32;;;;;;;14.90;11.55;;;11.60;99.90;;;;;;2720449;39;20504;31
2023/04/22 05:29:13;;;;;;;15.48;10.85;;;11.90;99.90;;;;;;2603474;54;20030;31
2023/04/22 05:31:54;;;;;;;13.20;10.53;;;12.10;99.90;;;;;;2602830;54;20031;31
2023/04/22 05:34:33;;;;;;;13.95;9.23;;;12.30;99.90;;;;;;2603613;54;20049;31
2023/04/22 05:37:10;;;;;;;14.35;8.90;;;12.50;99.90;;;;;;2701646;39;21599;31
2023/04/22 05:40:00;;;;;;;14.43;9.32;;;12.70;99.90;;;;;;2701989;39;21551;31
2023/04/22 05:42:57;;;;;;;12.75;8.80;;;12.80;99.90;;;;;;2765180;31;20030;31
2023/04/22 05:45:36;;;;;;;11.63;8.97;;;13.10;99.90;;;;;;2603405;54;20018;31
2023/04/22 05:48:16;;;;;;;13.73;9.85;;;13.20;99.90;;;;;;2603456;54;20465;31
2023/04/22 05:51:08;;;;;;;11.60;8.57;;;13.40;99.90;;;;;;2603541;54;20729;31
2023/04/22 05:53:48;;;;;;;16.10;8.38;;;13.60;99.90;;;;;;2720405;39;20598;31
2023/04/22 05:56:27;;;;;;;14.95;9.50;;;13.90;99.90;;;;;;2603455;54;20526;31
2023/04/22 05:59:03;;;;;;;15.87;8.93;;;14.10;99.90;;;;;;2603372;54;20032;31
2023/04/22 06:01:45;;;;;;;14.43;9.48;;;14.30;99.90;;;;;;2622220;46;20045;31
2023/04/22 06:04:28;;;;;;;16.33;10.25;;;14.50;99.90;;;;;;2603624;54;20026;31
2023/04/22 06:07:13;;;;;;;17.90;10.07;;;14.70;99.90;;;;;;2603331;54;20748;31
2023/04/22 06:09:50;;;;;;;12.65;9.20;;;14.90;99.90;;;;;;2603029;54;20045;31
2023/04/22 06:12:44;;;;;;;18.05;10.10;;;15.20;99.90;;;;;;2603595;54;20894;31
2023/04/22 06:15:25;;;;;;;14.57;9.90;;;15.50;99.90;;;;;;2621169;46;20030;31
2023/04/22 06:18:05;;;;;;;14.13;10.07;;;15.60;99.90;;;;;;2603409;54;20036;31
2023/04/22 06:20:41;;;;;;;17.67;10.45;;;15.90;99.90;;;;;;2603312;54;20077;31
2023/04/22 06:23:22;;;;;;;13.70;10.05;;;16.10;99.90;;;;;;2603287;54;20874;31
2023/04/22 06:26:00;;;;;;;18.57;10.77;;;16.30;99.90;;;;;;2602526;54;20034;31
2023/04/22 06:28:42;;;;;;;15.32;9.57;;;16.50;99.90;;;;;;2621540;46;20848;31
2023/04/22 06:31:23;;;;;;;12.68;9.32;;;16.60;99.90;;;;;;2603398;54;20499;31
2023/04/22 06:34:04;;;;;;;20.48;9.68;;;16.80;99.90;;;;;;2603343;54;20871;31
2023/04/22 06:36:45;;;;;;;13.70;10.10;;;16.90;99.90;;;;;;2603241;54;20030;31
2023/04/22 06:39:39;;;;;;;19.40;10.90;;;17.20;99.90;;;;;;2603232;54;20117;31
2023/04/22 06:42:38;;;;;;;16.10;10.55;;;17.50;99.90;;;;;;2603297;54;20031;31
2023/04/22 06:45:27;;;;;;;16.30;9.80;;;17.70;99.90;;;;;;2701854;39;20541;31
2023/04/22 06:48:35;;;;;;;16.80;10.05;;;18.00;99.90;;;;;;2603318;54;20901;31
2023/04/22 06:51:47;;;;;;;15.80;10.57;;;18.30;99.90;;;;;;2603302;54;20081;31
2023/04/22 06:54:37;;;;;;;16.60;10.50;;;18.50;99.90;;;;;;2602520;54;20863;31
2023/04/22 06:57:13;;;;;;;16.30;10.70;;;18.70;99.90;;;;;;2602948;54;20784;31
2023/04/22 06:59:55;;;;;;;13.43;10.05;;;18.80;99.90;;;;;;2602550;54;20057;31
2023/04/22 07:02:34;;;;;;;18.15;10.50;;;18.80;99.40;;;;;;2601862;54;20545;31
2023/04/22 07:05:24;;;;;;;16.08;9.23;;;19.00;99.70;;;;;;2614516;46;20128;31
2023/04/22 07:08:08;;;;;;;15.25;9.23;;;19.20;98.50;;;;;;2602651;54;20019;31
2023/04/22 07:10:50;;;;;;;15.20;10.17;;;19.20;96.80;;;;;;2621344;46;20049;31
2023/04/22 07:13:43;;;;;;;19.23;9.88;;;19.30;97.00;;;;;;2603121;54;20031;31
2023/04/22 07:16:31;;;;;;;15.85;9.35;;;19.50;96.90;;;;;;2603123;54;20144;31
2023/04/22 07:19:25;;;;;;;23.23;11.25;;;19.70;96.50;;;;;;2621151;46;20901;31
2023/04/22 07:22:05;;;;;;;16.75;9.57;;;20.00;95.80;;;;;;2603139;54;20018;31
2023/04/22 07:24:43;;;;;;;17.67;9.90;;;20.20;95.80;;;;;;2602979;54;20885;31
2023/04/22 07:30:35;;;;;;;11.95;9.85;;;20.60;94.90;;;;;;2621484;46;20077;31
2023/04/22 07:33:25;;;;;;;17.00;10.75;;;20.80;95.10;;;;;;2603290;54;20034;31
2023/04/22 07:36:04;;;;;;;12.98;10.63;;;21.10;93.90;;;;;;2603143;54;20870;31
2023/04/22 07:38:43;;;;;;;13.20;9.98;;;21.40;93.90;;;;;;2602635;54;20686;31
2023/04/22 07:51:24;;;;;;;17.13;10.18;;;22.30;90.80;;;;;;2602844;54;20018;31
2023/04/22 08:14:58;;;;;;;11.23;8.25;;;22.90;84.00;;;;;;2621344;47;20033;31
2023/04/22 08:26:48;;;;;;;12.75;7.95;;;23.20;80.80;;;;;;2603116;54;20022;31
2023/04/22 08:32:17;;;;;;;11.20;7.15;;;23.60;81.70;;;;;;2602736;54;20026;31
2023/04/22 08:38:07;;;;;;;11.60;7.03;;;24.20;79.40;;;;;;2602874;54;20022;31
2023/04/22 08:40:58;;;;;;;11.38;6.68;;;24.40;78.90;;;;;;2602829;54;20789;31
2023/04/22 08:43:48;;;;;;;9.98;5.75;;;24.40;75.30;;;;;;2602921;54;20023;31
2023/04/22 08:49:15;;;;;;;8.65;6.20;;;24.50;75.30;;;;;;2602638;54;20038;31
2023/04/22 08:52:14;;;;;;;12.60;5.75;;;24.50;75.40;;;;;;2621519;47;20057;31
2023/04/22 08:54:54;;;;;;;7.95;5.65;;;24.60;74.00;;;;;;2603472;54;20946;31
2023/04/22 08:57:47;;;;;;;11.38;6.65;;;24.80;75.10;;;;;;2603694;54;20030;31
2023/04/22 09:00:37;;;;;;;9.60;6.45;;;24.70;74.30;;;;;;2603758;54;20945;31
2023/04/22 09:03:27;;;;;;;10.95;7.05;;;24.80;73.30;;;;;;2602926;54;20919;31
2023/04/22 09:06:12;;;;;;;9.63;6.28;;;24.70;72.10;;;;;;2603558;54;20911;31
2023/04/22 09:08:55;;;;;;;8.93;6.13;;;24.70;72.90;;;;;;2603698;54;20850;31
2023/04/22 09:11:34;;;;;;;8.98;5.60;;;24.80;72.90;;;;;;2603697;54;20884;31
2023/04/22 09:14:13;;;;;;;6.47;4.75;;;25.00;70.10;;;;;;2603563;54;20796;31
2023/04/22 09:17:07;;;;;;;6.45;4.20;;;25.00;71.10;;;;;;2603571;54;20049;31
2023/04/22 09:22:20;;;;;;;6.30;5.03;;;24.90;68.60;;;;;;2702029;39;20546;31
2023/04/22 09:25:00;;;;;;;6.60;5.05;;;24.90;68.80;;;;;;2603430;54;20030;31
2023/04/22 09:30:29;;;;;;;8.05;5.85;;;25.00;68.50;;;;;;2621937;46;20034;31
2023/04/22 09:33:22;;;;;;;7.15;4.35;;;24.80;66.30;;;;;;2603528;54;20027;31
2023/04/22 09:36:17;;;;;;;9.40;4.67;;;24.60;66.10;;;;;;2602658;54;21616;31
2023/04/22 09:42:10;;;;;;;4.80;3.22;;;24.30;66.20;;;;;;2621857;46;20030;31
2023/04/22 09:44:54;;;;;;;7.05;4.40;;;24.20;65.40;;;;;;2603317;54;20028;31
2023/04/22 09:47:42;;;;;;;8.57;5.05;;;24.00;66.70;;;;;;2701965;39;21615;31
2023/04/22 09:50:23;;;;;;;6.55;3.90;;;24.20;67.40;;;;;;2603255;54;20026;31
2023/04/22 09:53:03;;;;;;;5.27;4.10;;;24.10;65.50;;;;;;2603317;54;20082;31
2023/04/22 09:55:40;;;;;;;5.05;3.10;;;24.00;64.40;;;;;;2603615;54;20034;31
2023/04/22 09:58:26;;;;;;;6.38;3.40;;;23.90;65.70;;;;;;2621872;46;20026;31
2023/04/22 10:01:07;;;;;;;5.80;4.00;;;24.00;64.50;;;;;;2621586;46;20022;31
2023/04/22 10:03:54;;;;;;;6.00;4.17;;;23.80;65.00;;;;;;2603587;54;20030;31
2023/04/22 10:06:36;;;;;;;5.25;4.05;;;23.80;65.40;;;;;;2603583;54;20033;31
2023/04/22 10:09:17;;;;;;;5.32;3.25;;;23.70;64.50;;;;;;2603323;54;20022;31
2023/04/22 10:11:53;;;;;;;8.40;4.03;;;23.80;65.50;;;;;;2603301;54;21275;31
2023/04/22 10:14:38;;;;;;;7.65;3.60;;;23.90;64.20;;;;;;2603348;54;21679;31
2023/04/22 10:17:20;;;;;;;5.43;4.00;;;23.90;64.60;;;;;;2602816;54;20061;31
2023/04/22 10:19:57;;;;;;;6.10;3.70;;;24.00;65.00;;;;;;2602467;54;20076;31
2023/04/22 10:22:49;;;;;;;9.45;4.95;;;24.00;65.10;;;;;;2603585;54;20775;31
2023/04/22 10:28:03;;;;;;;8.48;4.78;;;23.80;65.60;;;;;;2621924;46;20029;31
2023/04/22 10:30:43;;;;;;;6.30;4.30;;;23.80;66.10;;;;;;2621779;46;20030;31
2023/04/22 10:33:37;;;;;;;6.63;4.57;;;23.80;64.70;;;;;;2603216;54;20940;31
2023/04/22 10:36:13;;;;;;;9.40;5.10;;;23.90;66.40;;;;;;2603471;54;20031;31
2023/04/22 10:39:18;;;;;;;7.63;4.47;;;24.00;64.50;;;;;;2603555;54;20081;31
2023/04/22 10:41:57;;;;;;;6.18;4.00;;;24.00;65.40;;;;;;2603527;54;20022;31
2023/04/22 10:44:50;;;;;;;5.82;3.45;;;23.90;66.10;;;;;;2621564;46;20799;31
2023/04/22 10:47:25;;;;;;;9.52;3.60;;;23.90;63.50;;;;;;2603269;54;20873;31
2023/04/22 10:50:20;;;;;;;5.43;4.07;;;24.00;64.50;;;;;;2603407;54;20022;31
2023/04/22 10:53:02;;;;;;;4.93;3.70;;;24.00;63.20;;;;;;2621453;46;20073;31
2023/04/22 10:56:03;;;;;;;6.55;3.97;;;23.90;63.60;;;;;;2611745;46;20030;31
2023/04/22 10:58:43;;;;;;;6.80;3.50;;;23.80;63.10;;;;;;2603474;54;20023;31
2023/04/22 11:01:32;;;;;;;6.65;3.83;;;23.60;62.60;;;;;;2603313;54;20077;31
2023/04/22 11:04:24;;;;;;;8.20;4.03;;;23.40;62.70;;;;;;2621555;46;20975;31
2023/04/22 11:07:25;;;;;;;5.80;4.05;;;23.40;63.90;;;;;;2625537;46;20858;31
2023/04/22 11:10:17;;;;;;;5.38;4.13;;;23.40;63.20;;;;;;2620896;46;20113;31
2023/04/22 11:12:52;;;;;;;4.63;3.65;;;23.10;61.90;;;;;;2602999;54;20030;31
2023/04/22 11:15:33;;;;;;;5.95;4.00;;;23.10;63.20;;;;;;2603177;54;20061;31
2023/04/22 11:18:27;;;;;;;9.05;5.03;;;23.00;64.40;;;;;;2621687;46;20034;31
2023/04/22 11:21:06;;;;;;;4.57;3.80;;;23.00;62.80;;;;;;2603158;54;20121;31
2023/04/22 11:23:40;;;;;;;4.53;3.60;;;22.80;62.40;;;;;;2603410;54;20037;31
2023/04/22 11:26:27;;;;;;;4.70;3.55;;;22.60;62.50;;;;;;2621701;46;20052;31
2023/04/22 11:29:08;;;;;;;5.78;3.42;;;22.50;63.10;;;;;;2619244;46;20112;31
2023/04/22 11:31:50;;;;;;;6.97;3.75;;;22.40;62.70;;;;;;2602982;54;20736;31
2023/04/22 11:34:32;;;;;;;9.18;4.85;;;22.30;63.40;;;;;;2603048;54;20849;31
2023/04/22 11:37:15;;;;;;;5.32;3.22;;;22.30;63.40;;;;;;2621467;46;20732;31
2023/04/22 11:39:53;;;;;;;5.18;3.03;;;22.20;62.40;;;;;;2603013;54;20033;31
2023/04/22 11:42:52;;;;;;;6.03;2.90;;;22.20;62.00;;;;;;2701419;39;21618;31
2023/04/22 11:45:35;;;;;;;8.27;3.87;;;22.30;61.40;;;;;;2603071;54;20267;31
2023/04/22 11:48:10;;;;;;;4.20;3.03;;;22.30;61.70;;;;;;2603133;54;20234;31
2023/04/22 11:50:47;;;;;;;4.10;3.40;;;22.20;61.20;;;;;;2602986;54;20882;31
2023/04/22 11:53:38;;;;;;;6.05;3.95;;;22.00;61.10;;;;;;2602873;54;20081;31
2023/04/22 11:58:56;;;;;;;5.75;2.90;;;22.00;63.80;;;;;;2603110;54;20034;31
2023/04/22 12:01:40;;;;;;;5.72;3.28;;;22.00;63.70;;;;;;2603090;54;20881;31
2023/04/22 12:04:19;;;;;;;3.60;2.85;;;21.90;62.00;;;;;;2615205;47;20034;31
2023/04/22 12:06:57;;;;;;;7.10;3.30;;;21.90;62.10;;;;;;2621625;47;20085;31
2023/04/22 12:09:36;;;;;;;5.07;3.63;;;21.80;64.20;;;;;;2603106;54;20033;31
2023/04/22 12:12:14;;;;;;;6.85;3.53;;;21.60;63.40;;;;;;2602967;54;20089;31
2023/04/22 12:15:00;;;;;;;5.00;3.38;;;21.60;64.10;;;;;;2603075;54;19942;31
2023/04/22 12:17:39;;;;;;;4.70;3.40;;;21.60;64.80;;;;;;2602921;54;20031;31
2023/04/22 12:20:23;;;;;;;4.65;3.70;;;21.70;64.50;;;;;;2603006;54;20825;31
2023/04/22 12:23:02;;;;;;;5.25;3.30;;;21.60;64.00;;;;;;2621010;47;20077;31
2023/04/22 12:25:38;;;;;;;8.15;3.58;;;21.50;61.80;;;;;;2603641;54;20034;31
2023/04/22 12:28:15;;;;;;;7.47;4.30;;;21.50;63.80;;;;;;2622630;46;20022;31
2023/04/22 12:30:57;;;;;;;7.25;4.30;;;21.40;64.80;;;;;;2622185;46;20074;31
2023/04/22 12:33:33;;;;;;;7.82;5.78;;;21.60;65.00;;;;;;2603926;54;20027;31
2023/04/22 12:36:14;;;;;;;10.18;5.28;;;21.70;66.90;;;;;;2622004;46;20035;31
2023/04/22 12:38:51;;;;;;;4.97;3.83;;;21.70;65.60;;;;;;2702349;39;21452;31
2023/04/22 12:41:34;;;;;;;7.32;4.15;;;21.70;64.50;;;;;;2603759;54;20052;31
2023/04/22 12:44:12;;;;;;;5.75;3.70;;;21.50;64.50;;;;;;2622320;46;20089;31
2023/04/22 12:47:02;;;;;;;10.02;4.55;;;21.30;63.40;;;;;;2622243;46;20104;31
2023/04/22 12:49:43;;;;;;;5.90;3.85;;;21.30;62.10;;;;;;2603737;54;20049;31
2023/04/22 12:52:23;;;;;;;3.90;3.45;;;21.30;62.70;;;;;;2603805;54;20895;31
2023/04/22 12:55:03;;;;;;;5.78;3.50;;;21.20;62.80;;;;;;2603667;54;20731;31
2023/04/22 12:57:41;;;;;;;6.57;3.85;;;21.20;63.40;;;;;;2603596;54;20864;31
2023/04/22 13:00:20;;;;;;;5.68;4.63;;;21.20;64.80;;;;;;2603685;54;20030;31
2023/04/22 13:03:06;;;;;;;6.10;2.90;;;21.20;66.60;;;;;;2603559;54;20089;31
2023/04/22 13:05:43;;;;;;;5.47;3.63;;;21.30;63.00;;;;;;2603455;54;20803;31
2023/04/22 13:08:24;;;;;;;6.03;3.03;;;21.10;61.40;;;;;;2603555;54;20272;31
2023/04/22 13:11:07;;;;;;;5.15;3.08;;;21.10;63.90;;;;;;2622206;46;20116;31
2023/04/22 13:13:56;;;;;;;6.40;3.50;;;21.00;64.10;;;;;;2622122;46;20137;31
2023/04/22 13:16:32;;;;;;;6.63;3.63;;;20.90;63.70;;;;;;2603567;54;20888;31
2023/04/22 13:19:15;;;;;;;4.22;3.08;;;20.90;63.50;;;;;;2603552;54;20034;31
2023/04/22 13:21:54;;;;;;;6.55;2.80;;;20.90;64.20;;;;;;2603538;54;20022;31
2023/04/22 13:24:34;;;;;;;3.38;3.00;;;20.90;62.90;;;;;;2622078;46;20026;31
2023/04/22 13:27:12;;;;;;;6.35;3.25;;;20.90;63.70;;;;;;2603726;54;20803;31
2023/04/22 13:29:48;;;;;;;4.60;2.95;;;20.90;64.70;;;;;;2621982;46;20818;31
2023/04/22 13:32:24;;;;;;;6.35;3.47;;;21.00;65.40;;;;;;2603576;54;20038;31
2023/04/22 13:35:06;;;;;;;4.20;3.13;;;21.00;64.50;;;;;;2603595;54;20031;31
2023/04/22 13:37:45;;;;;;;4.38;3.30;;;20.90;63.50;;;;;;2604572;47;20033;31
2023/04/22 13:40:25;;;;;;;4.65;2.95;;;20.90;63.10;;;;;;2603356;54;21621;31
2023/04/22 13:43:00;;;;;;;12.98;9.25;;;20.90;64.30;;;;;;2603651;54;20048;31
2023/04/22 13:45:41;;;;;;;12.07;8.45;;;20.90;65.20;;;;;;2603274;54;20022;31
2023/04/22 13:48:18;;;;;;;5.72;3.85;;;20.90;64.30;;;;;;2603555;54;20030;31
2023/04/22 13:50:59;;;;;;;;;;;21.00;65.20;;;;;;2603658;54;20877;31
2023/04/22 13:53:39;;;;;;;4.43;3.00;;;21.10;63.60;;;;;;2621936;46;19941;31
2023/04/22 13:56:18;;;;;;;4.15;2.40;;;21.10;62.20;;;;;;2621468;46;20758;31
2023/04/22 13:58:54;;;;;;;3.13;2.60;;;21.00;61.80;;;;;;2603105;54;20876;31
2023/04/22 14:01:36;;;;;;;7.30;2.23;;;20.90;61.30;;;;;;2621862;46;20030;31
2023/04/22 14:04:14;;;;;;;5.68;3.67;;;20.90;61.80;;;;;;2621802;46;20038;31
2023/04/22 14:06:58;;;;;;;3.53;2.85;;;20.80;62.20;;;;;;2603400;54;21664;31
2023/04/22 14:09:37;;;;;;;26.98;18.80;;;20.80;61.80;;;;;;2603353;54;20865;31
2023/04/22 14:12:17;;;;;;;10.10;6.20;;;20.80;63.30;;;;;;2602525;54;20034;31
2023/04/22 14:14:56;;;;;;;14.50;8.10;;;20.80;64.10;;;;;;2603273;54;20795;31
2023/04/22 14:17:34;;;;;;;4.70;2.80;;;20.80;64.80;;;;;;2603490;54;21573;31
2023/04/22 14:20:17;;;;;;;5.68;3.10;;;20.70;64.40;;;;;;2603034;54;20083;31
2023/04/22 14:23:04;;;;;;;6.15;3.28;;;20.70;63.50;;;;;;2603458;54;20736;31
2023/04/22 14:25:42;;;;;;;7.75;3.00;;;20.70;65.70;;;;;;2603588;54;20081;31
2023/04/22 14:28:19;;;;;;;5.78;3.63;;;20.70;65.20;;;;;;2603429;54;20061;31
2023/04/22 14:30:59;;;;;;;6.47;2.63;;;20.70;62.90;;;;;;2603308;54;20561;31
2023/04/22 14:36:14;;;;;;;4.60;2.80;;;20.70;63.80;;;;;;2621626;46;20023;31
2023/04/22 14:38:58;;;;;;;3.67;2.28;;;20.70;64.10;;;;;;2602545;54;20038;31
2023/04/22 14:41:34;;;;;;;5.55;2.85;;;20.70;65.10;;;;;;2602554;54;20871;31
2023/04/22 14:44:14;;;;;;;5.90;3.90;;;20.70;64.80;;;;;;2602561;54;20049;31
2023/04/22 14:46:53;;;;;;;6.38;2.38;;;20.70;63.50;;;;;;2621886;46;20839;31
2023/04/22 14:49:33;;;;;;;4.05;2.60;;;20.70;63.10;;;;;;2603207;54;20028;31
2023/04/22 14:52:17;;;;;;;10.55;4.45;;;20.60;64.40;;;;;;2621361;46;20030;31
2023/04/22 14:55:02;;;;;;;5.30;3.75;;;20.70;65.70;;;;;;2603237;54;20772;31
2023/04/22 14:57:59;;;;;;;4.22;2.85;;;20.70;66.60;;;;;;2621892;46;20854;31
2023/04/22 15:00:35;;;;;;;4.63;2.88;;;20.70;64.70;;;;;;2603589;54;20038;31
2023/04/22 15:03:13;;;;;;;5.33;2.67;;;20.70;65.20;;;;;;2603184;54;20013;31
2023/04/22 15:05:54;;;;;;;3.60;2.35;;;20.70;64.50;;;;;;2603559;54;20032;31
2023/04/22 15:08:34;;;;;;;4.25;2.70;;;20.70;64.30;;;;;;2603152;54;20034;31
2023/04/22 15:11:14;;;;;;;3.83;2.72;;;20.70;64.40;;;;;;2603353;54;20034;31
2023/04/22 15:13:55;;;;;;;4.95;2.33;;;20.60;63.10;;;;;;2603146;54;20165;31
2023/04/22 15:16:32;;;;;;;4.78;2.30;;;20.60;63.30;;;;;;2603094;54;20133;31
2023/04/22 15:19:10;;;;;;;3.30;2.07;;;20.60;63.70;;;;;;2621491;46;20026;31
2023/04/22 15:21:47;;;;;;;5.60;2.33;;;20.50;62.80;;;;;;2602994;54;20241;31